Terminal Aerodrome Forecast
Issued by NWS

Home | Current Version | Previous Version | Graphics & Text | Print | Product List | Glossary On
Versions: 1 2 3 4 5 6 7 8 9 10 11 12 13
000
FTUS43 KBIS 230520
TAFMOT
TAF
KMOT 230520Z 2306/2406 14006KT P6SM SCT100
     FM231200 12008KT P6SM BKN080
     FM231800 12011KT P6SM BKN080 OVC150=

USA.gov is the U.S. government's official web portal to all federal, state and local government web resources and services.